Main page
METAR-TAF:

METAR-TAF

Airports :

Murtala Muhammed International Airport

Lagos, Nigeria

latitude: 06-35N, longitude: 003-20E, elevation: 40 m

METAR: missing

Time: 22:55 (21:55 UTC)

Forecast

The report was made 30 hours and 5 minutes ago, at 15:50 UTC
Forecast valid from 16 at 18 UTC to 17 at 24 UTC
Wind 2 kt from variable directions
Visibility: 8000 m
Few clouds at a height of 1000 ft
Temporary
from 16 at 19 UTC to 16 at 23 UTC
Few clouds at a height of 1000 ft
Few clouds at a height of 2000 ft, Cumulonimbus.
thunderstorm
Probability 30%
from 16 at 23 UTC to 17 at 05 UTC
Visibility: 5000 m
Broken clouds at a height of 800 ft
Few clouds at a height of 1800 ft, Cumulonimbus.
thunderstorm, light rain
Becoming
from 17 at 08 UTC to 17 at 10 UTC
Wind 10 kt from the South/Southwest
Broken clouds at a height of 1300 ft

TAF: DNMM 161550Z 1618/1724 VRB02KT 8000 FEW010 TEMPO 1619/1623 TS FEW010 FEW020CB PROB30 1623/1705 5000 -TSRA BKN008 FEW018CB BECMG 1708/1710 21010KT BKN013

Weather observations and forecasts of more than 4000 airports (METAR and TAF reports).

The available stations are represented by yellow and red dots on the map.

Hover mouse over dot to see the name of the station.

Then click to see weather observations and forecasts.

To change the map : click on the green buttons with a black cross to zoom in, on the green button with a dash to zoom out, or on the green arrows for adjacent maps.


METAR-TAF: